Time;durP1;ratioP1;P1;durP2;ratioP2;P2;SDS_P1;SDS_P2;PMS_P1;PMS_P2;Temp;Humidity;BMP_temperature;BMP_pressure;BME280_temperature;BME280_humidity;BME280_pressure;Samples;Min_cycle;Max_cycle;Signal;HPM_P1;HPM_P2
2024/01/03 00:02:24;;;;;;;9.75;1.58;;;9.10;99.90;;;;;;5050953;28;20508;-69
2024/01/03 00:04:49;;;;;;;16.05;1.88;;;9.00;99.90;;;;;;5051202;28;20041;-69
2024/01/03 00:07:16;;;;;;;9.57;1.58;;;9.20;99.90;;;;;;5050889;28;20522;-69
2024/01/03 00:09:41;;;;;;;9.98;2.95;;;9.00;99.90;;;;;;5052130;28;20115;-69
2024/01/03 00:12:11;;;;;;;12.98;1.95;;;9.00;99.90;;;;;;5052306;28;20126;-68
2024/01/03 00:14:37;;;;;;;6.47;1.98;;;9.10;99.90;;;;;;5052193;28;20047;-68
2024/01/03 00:17:07;;;;;;;10.10;2.10;;;9.10;99.90;;;;;;5052002;28;20059;-69
2024/01/03 00:19:39;;;;;;;7.35;1.38;;;9.00;99.90;;;;;;5050985;28;20041;-69
2024/01/03 00:22:12;;;;;;;6.13;1.67;;;9.10;99.90;;;;;;5052192;28;20508;-69
2024/01/03 00:24:49;;;;;;;9.85;2.15;;;9.00;99.90;;;;;;5051952;28;20427;-69
2024/01/03 00:27:17;;;;;;;8.25;2.22;;;9.10;99.90;;;;;;5051574;28;20082;-69
2024/01/03 00:30:02;;;;;;;14.85;2.58;;;9.10;99.90;;;;;;5051983;28;20047;-69
2024/01/03 00:32:28;;;;;;;10.45;1.95;;;9.10;99.90;;;;;;5051946;28;20063;-69
2024/01/03 00:34:56;;;;;;;7.68;1.70;;;8.90;99.90;;;;;;5051752;28;20135;-69
2024/01/03 00:37:27;;;;;;;6.68;1.65;;;8.90;99.90;;;;;;5051369;28;20491;-69
2024/01/03 00:39:57;;;;;;;15.10;2.17;;;9.00;99.90;;;;;;5051961;28;20037;-69
2024/01/03 00:42:23;;;;;;;9.57;1.70;;;9.00;99.90;;;;;;5051823;28;20029;-69
2024/01/03 00:44:49;;;;;;;9.88;2.28;;;8.80;99.90;;;;;;5051740;28;20068;-69
2024/01/03 00:47:16;;;;;;;4.18;1.48;;;9.00;99.90;;;;;;5051412;28;20614;-69
2024/01/03 00:49:41;;;;;;;12.65;1.75;;;8.90;99.90;;;;;;5051699;28;20076;-69
2024/01/03 00:52:08;;;;;;;6.07;1.92;;;8.90;99.90;;;;;;5051800;28;20072;-69
2024/01/03 00:54:35;;;;;;;8.18;2.53;;;8.70;99.90;;;;;;5051657;28;20064;-69
2024/01/03 00:57:01;;;;;;;10.80;2.78;;;8.80;99.90;;;;;;5051211;28;20041;-69
2024/01/03 00:59:28;;;;;;;7.47;2.38;;;8.70;99.90;;;;;;5051395;28;20500;-69
2024/01/03 01:01:54;;;;;;;12.48;2.38;;;8.80;99.90;;;;;;5051433;28;20112;-69
2024/01/03 01:04:20;;;;;;;12.02;2.17;;;8.70;99.90;;;;;;5051699;28;20127;-69
2024/01/03 01:06:46;;;;;;;6.15;1.25;;;8.80;99.90;;;;;;5051494;28;20044;-69
2024/01/03 01:09:12;;;;;;;8.40;1.50;;;8.70;99.90;;;;;;5051283;28;20162;-69
2024/01/03 01:11:37;;;;;;;6.78;1.48;;;8.70;99.90;;;;;;5051306;28;20083;-68
2024/01/03 01:14:03;;;;;;;8.88;1.73;;;8.70;99.90;;;;;;5051402;28;20037;-69
2024/01/03 01:16:29;;;;;;;8.70;1.95;;;8.70;99.90;;;;;;5049958;28;20463;-69
2024/01/03 01:18:54;;;;;;;10.38;2.13;;;8.70;99.90;;;;;;5051402;28;20037;-69
2024/01/03 01:21:20;;;;;;;9.60;2.25;;;8.90;99.90;;;;;;5051439;28;20542;-69
2024/01/03 01:23:46;;;;;;;10.10;1.92;;;8.80;99.90;;;;;;5051382;28;20115;-69
2024/01/03 01:26:11;;;;;;;12.40;2.78;;;8.70;99.90;;;;;;5051103;28;20505;-69
2024/01/03 01:28:37;;;;;;;11.20;1.98;;;8.80;99.90;;;;;;5051088;28;20090;-69
2024/01/03 01:31:03;;;;;;;9.43;1.48;;;8.80;99.90;;;;;;5051174;28;20040;-69
2024/01/03 01:33:28;;;;;;;10.65;1.70;;;8.70;99.90;;;;;;5051441;28;20133;-68
2024/01/03 01:35:54;;;;;;;9.95;1.75;;;8.80;99.90;;;;;;5051015;28;20106;-69
2024/01/03 01:38:20;;;;;;;10.85;2.20;;;8.80;99.90;;;;;;5051074;28;20067;-68
2024/01/03 01:40:49;;;;;;;15.88;2.22;;;8.70;99.90;;;;;;5054900;28;20033;-69
2024/01/03 01:43:16;;;;;;;10.00;2.72;;;8.90;99.90;;;;;;5055022;28;20075;-68
2024/01/03 01:45:41;;;;;;;8.65;1.40;;;8.70;99.90;;;;;;5054839;28;20076;-69
2024/01/03 01:48:07;;;;;;;11.93;1.55;;;8.70;99.90;;;;;;5054781;28;20041;-69
2024/01/03 01:50:38;;;;;;;7.15;1.98;;;8.70;99.90;;;;;;5054992;28;20087;-69
2024/01/03 01:53:05;;;;;;;8.55;2.13;;;8.80;99.90;;;;;;5054935;28;20044;-69
2024/01/03 01:55:31;;;;;;;12.10;2.13;;;8.70;99.90;;;;;;5054759;28;20118;-69
2024/01/03 01:57:57;;;;;;;13.75;3.42;;;8.70;99.90;;;;;;5054231;28;20392;-69
2024/01/03 02:00:22;;;;;;;9.38;2.13;;;8.70;99.90;;;;;;5054949;28;20037;-69
2024/01/03 02:02:49;;;;;;;9.30;2.17;;;8.80;99.90;;;;;;5054857;28;20033;-69
2024/01/03 02:05:15;;;;;;;4.85;1.77;;;8.80;99.90;;;;;;5054773;28;20033;-68
2024/01/03 02:07:41;;;;;;;10.07;2.42;;;8.70;99.90;;;;;;5054299;28;20048;-69
2024/01/03 02:10:08;;;;;;;9.95;2.13;;;8.90;99.90;;;;;;5054410;28;20060;-68
2024/01/03 02:12:34;;;;;;;13.63;2.58;;;8.80;99.90;;;;;;5054390;28;20037;-68
2024/01/03 02:15:00;;;;;;;17.33;2.60;;;8.90;99.90;;;;;;5054668;28;20118;-68
2024/01/03 02:17:27;;;;;;;11.60;2.35;;;8.90;99.90;;;;;;5054142;28;20051;-69
2024/01/03 02:20:00;;;;;;;9.30;2.67;;;8.80;99.90;;;;;;5054711;28;20041;-69
2024/01/03 02:22:28;;;;;;;7.13;1.57;;;8.90;99.90;;;;;;5054406;28;20044;-68
2024/01/03 02:24:54;;;;;;;7.82;1.92;;;8.90;99.90;;;;;;5054139;28;20278;-68
2024/01/03 02:27:20;;;;;;;8.30;2.20;;;8.90;99.90;;;;;;5053926;28;20080;-69
2024/01/03 02:29:46;;;;;;;8.75;1.40;;;8.80;99.90;;;;;;5054410;28;20082;-69
2024/01/03 02:32:11;;;;;;;10.90;1.98;;;8.80;99.90;;;;;;5054368;28;20110;-69
2024/01/03 02:34:38;;;;;;;9.75;1.60;;;9.00;99.90;;;;;;5054088;28;20037;-68
2024/01/03 02:37:04;;;;;;;7.63;1.33;;;9.00;99.90;;;;;;5053845;28;20041;-68
2024/01/03 02:39:30;;;;;;;7.20;1.05;;;9.00;99.90;;;;;;5053793;28;20048;-68
2024/01/03 02:41:56;;;;;;;7.90;2.08;;;9.00;99.90;;;;;;5053876;28;20037;-68
2024/01/03 02:44:23;;;;;;;13.23;1.98;;;9.00;99.90;;;;;;5054056;28;20037;-68
2024/01/03 02:46:49;;;;;;;8.23;1.60;;;9.00;99.90;;;;;;5053815;28;20059;-68
2024/01/03 02:49:15;;;;;;;5.90;1.48;;;9.00;99.90;;;;;;5052191;28;20091;-68
2024/01/03 02:51:41;;;;;;;6.28;1.73;;;9.00;99.90;;;;;;5053802;28;20041;-68
2024/01/03 02:54:06;;;;;;;8.35;1.63;;;9.00;99.90;;;;;;5053604;28;20041;-68
2024/01/03 02:56:40;;;;;;;7.03;1.63;;;9.10;99.90;;;;;;5073215;22;20034;-75
2024/01/03 02:59:06;;;;;;;18.27;3.35;;;9.00;99.90;;;;;;5048151;28;20037;-75
2024/01/03 03:01:31;;;;;;;9.10;1.70;;;9.00;99.90;;;;;;5031900;28;20034;-76
2024/01/03 03:03:57;;;;;;;7.10;1.50;;;9.10;99.90;;;;;;5048872;28;20527;-75
2024/01/03 03:06:22;;;;;;;7.03;1.50;;;9.20;99.90;;;;;;5048445;28;20033;-75
2024/01/03 03:08:48;;;;;;;6.75;1.70;;;9.10;99.90;;;;;;5015516;28;20098;-76
2024/01/03 03:11:13;;;;;;;8.98;1.42;;;9.20;99.90;;;;;;5015495;28;20048;-75
2024/01/03 03:13:39;;;;;;;4.68;1.73;;;9.30;99.90;;;;;;5015732;28;20510;-76
2024/01/03 03:16:07;;;;;;;9.27;1.95;;;9.10;99.90;;;;;;5015252;28;20079;-76
2024/01/03 03:18:33;;;;;;;8.00;1.70;;;9.30;99.90;;;;;;5015107;28;20497;-75
2024/01/03 03:21:00;;;;;;;8.18;1.50;;;9.30;99.90;;;;;;5015624;28;20060;-75
2024/01/03 03:23:26;;;;;;;13.20;1.67;;;9.20;99.90;;;;;;5015153;28;20489;-75
2024/01/03 03:25:51;;;;;;;12.35;3.00;;;9.20;99.90;;;;;;5015494;28;20040;-76
2024/01/03 03:28:17;;;;;;;10.57;1.65;;;9.20;99.90;;;;;;5015054;28;20041;-76
2024/01/03 03:30:43;;;;;;;8.73;1.30;;;9.30;99.90;;;;;;5015095;28;20124;-75
2024/01/03 03:33:09;;;;;;;11.57;1.55;;;9.30;99.90;;;;;;4998873;28;20048;-75
2024/01/03 03:35:35;;;;;;;5.75;1.25;;;9.30;99.90;;;;;;5015040;28;20041;-76
2024/01/03 03:38:00;;;;;;;4.53;1.10;;;9.30;99.90;;;;;;5014532;28;20033;-75
2024/01/03 03:40:26;;;;;;;11.63;2.03;;;9.20;99.90;;;;;;5015246;28;20033;-75
2024/01/03 03:42:52;;;;;;;12.13;2.67;;;9.30;99.90;;;;;;5015009;28;20049;-75
2024/01/03 03:45:17;;;;;;;7.40;1.30;;;9.30;99.90;;;;;;5014983;28;20041;-75
2024/01/03 03:47:43;;;;;;;5.38;1.30;;;9.40;99.90;;;;;;4998342;28;20045;-75
2024/01/03 03:50:09;;;;;;;6.70;1.25;;;9.40;99.90;;;;;;5014840;28;20052;-75
2024/01/03 03:52:35;;;;;;;13.68;2.72;;;9.40;99.90;;;;;;5014684;28;20128;-75
2024/01/03 03:55:01;;;;;;;7.13;1.20;;;9.30;99.90;;;;;;4998404;28;20417;-75
2024/01/03 03:57:26;;;;;;;6.85;1.17;;;9.30;99.90;;;;;;5014145;28;20037;-75
2024/01/03 03:59:52;;;;;;;6.05;1.50;;;9.30;99.90;;;;;;5014743;28;20484;-75
2024/01/03 04:02:18;;;;;;;5.15;1.52;;;9.30;99.90;;;;;;5014050;28;20413;-75
2024/01/03 04:04:43;;;;;;;4.60;1.38;;;9.30;99.90;;;;;;4998208;28;20037;-75
2024/01/03 04:07:09;;;;;;;10.05;1.70;;;9.40;99.90;;;;;;4997925;28;20041;-75
2024/01/03 04:09:35;;;;;;;9.40;1.52;;;9.30;99.90;;;;;;5014648;28;20179;-75
2024/01/03 04:12:01;;;;;;;6.18;1.50;;;9.20;99.90;;;;;;5014413;28;20045;-75
2024/01/03 04:14:26;;;;;;;7.28;1.67;;;9.40;99.90;;;;;;4998169;28;20045;-75
2024/01/03 04:16:52;;;;;;;5.03;1.73;;;9.40;99.90;;;;;;5014054;28;20062;-75
2024/01/03 04:19:17;;;;;;;10.75;1.27;;;9.40;99.90;;;;;;5014135;28;20077;-75
2024/01/03 04:21:43;;;;;;;8.88;1.67;;;9.40;99.90;;;;;;5014271;28;20497;-75
2024/01/03 04:24:09;;;;;;;8.60;2.30;;;9.40;99.90;;;;;;5014280;28;20416;-75
2024/01/03 04:26:34;;;;;;;5.18;1.40;;;9.30;99.90;;;;;;5014307;28;20107;-75
2024/01/03 04:29:00;;;;;;;7.82;1.15;;;9.30;99.90;;;;;;5014044;28;20045;-75
2024/01/03 04:31:25;;;;;;;6.35;1.50;;;9.40;99.90;;;;;;5010571;28;20042;-75
2024/01/03 04:33:51;;;;;;;8.80;1.92;;;9.20;99.90;;;;;;5014023;28;20511;-75
2024/01/03 04:36:17;;;;;;;9.63;1.40;;;9.30;99.90;;;;;;5013829;28;20048;-76
2024/01/03 04:38:42;;;;;;;10.23;2.13;;;9.30;99.90;;;;;;5013835;28;20099;-75
2024/01/03 04:41:08;;;;;;;3.08;1.30;;;9.30;99.90;;;;;;5013998;28;20065;-75
2024/01/03 04:43:33;;;;;;;6.28;1.60;;;9.30;99.90;;;;;;4997676;28;20394;-75
2024/01/03 04:46:00;;;;;;;5.22;1.33;;;9.10;99.90;;;;;;5014109;28;20044;-75
2024/01/03 04:48:26;;;;;;;11.07;1.85;;;9.20;99.90;;;;;;5013399;28;20038;-75
2024/01/03 04:50:51;;;;;;;3.08;1.02;;;9.20;99.90;;;;;;5013727;28;20038;-76
2024/01/03 04:53:17;;;;;;;3.60;1.65;;;9.20;99.90;;;;;;4997420;28;20034;-75
2024/01/03 04:55:43;;;;;;;6.82;1.20;;;9.30;99.90;;;;;;5013853;28;20517;-75
2024/01/03 04:58:08;;;;;;;6.15;1.80;;;9.20;99.90;;;;;;4996913;28;20048;-76
2024/01/03 05:00:36;;;;;;;6.40;1.38;;;9.20;99.90;;;;;;5013812;28;20046;-75
2024/01/03 05:03:02;;;;;;;8.48;3.13;;;9.20;99.90;;;;;;5013870;28;20034;-76
2024/01/03 05:05:27;;;;;;;4.35;1.38;;;9.20;99.90;;;;;;5013328;28;20042;-76
2024/01/03 05:07:54;;;;;;;4.97;1.00;;;9.20;99.90;;;;;;5013479;28;20044;-75
2024/01/03 05:10:20;;;;;;;3.97;1.67;;;9.10;99.90;;;;;;4997467;28;20037;-75
2024/01/03 05:12:46;;;;;;;4.82;1.00;;;9.10;99.90;;;;;;5014846;28;20045;-75
2024/01/03 05:15:11;;;;;;;4.75;1.50;;;9.10;99.90;;;;;;5001320;28;20417;-75
2024/01/03 05:17:37;;;;;;;4.95;1.55;;;9.20;99.90;;;;;;5017340;28;20034;-76
2024/01/03 05:20:04;;;;;;;7.68;1.83;;;9.00;99.90;;;;;;5017857;28;20592;-76
2024/01/03 05:22:31;;;;;;;9.25;2.15;;;9.00;99.90;;;;;;5017517;28;20048;-75
2024/01/03 05:24:57;;;;;;;7.22;2.28;;;9.10;99.90;;;;;;5017529;28;20069;-76
2024/01/03 05:27:23;;;;;;;6.05;1.38;;;9.10;99.90;;;;;;5017198;28;20072;-76
2024/01/03 05:29:48;;;;;;;5.25;1.20;;;9.10;99.90;;;;;;5017447;28;20052;-76
2024/01/03 05:32:14;;;;;;;6.75;1.08;;;9.20;99.90;;;;;;5001158;28;20413;-76
2024/01/03 05:34:40;;;;;;;4.07;1.00;;;9.10;99.90;;;;;;5017216;28;20044;-75
2024/01/03 05:37:06;;;;;;;4.32;0.80;;;9.20;99.90;;;;;;5017209;28;20147;-76
2024/01/03 05:39:31;;;;;;;5.45;1.20;;;9.10;99.90;;;;;;5000861;28;20038;-75
2024/01/03 05:41:57;;;;;;;2.95;1.08;;;9.10;99.90;;;;;;5000980;28;20037;-75
2024/01/03 05:44:23;;;;;;;4.30;1.33;;;9.20;99.90;;;;;;5017586;28;20385;-75
2024/01/03 05:46:48;;;;;;;5.15;1.02;;;9.00;99.90;;;;;;5017293;28;20053;-75
2024/01/03 05:49:14;;;;;;;2.53;0.90;;;9.10;99.90;;;;;;5017194;28;20515;-75
2024/01/03 05:51:40;;;;;;;12.18;1.60;;;8.90;99.90;;;;;;5017384;28;20040;-75
2024/01/03 05:54:05;;;;;;;9.48;1.75;;;8.90;99.90;;;;;;5017192;28;20037;-75
2024/01/03 05:56:31;;;;;;;15.98;3.10;;;8.90;99.90;;;;;;5016888;28;20072;-75
2024/01/03 05:58:57;;;;;;;19.83;3.00;;;8.90;99.90;;;;;;5017230;28;20049;-75
2024/01/03 06:01:22;;;;;;;17.85;2.97;;;9.10;99.90;;;;;;5016921;28;20037;-75
2024/01/03 06:03:49;;;;;;;10.27;3.30;;;9.20;99.90;;;;;;5000427;28;20034;-75
2024/01/03 06:06:16;;;;;;;13.90;2.97;;;9.20;99.90;;;;;;5016636;28;20060;-75
2024/01/03 06:08:41;;;;;;;16.73;2.63;;;9.20;99.90;;;;;;5000461;28;20038;-75
2024/01/03 06:11:10;;;;;;;15.70;2.67;;;9.20;99.90;;;;;;5016995;28;20071;-75
2024/01/03 06:13:36;;;;;;;14.32;3.72;;;9.20;99.90;;;;;;5000365;28;20124;-75
2024/01/03 06:16:01;;;;;;;12.60;3.25;;;9.20;99.90;;;;;;5016661;28;20172;-76
2024/01/03 06:18:27;;;;;;;19.10;3.10;;;9.20;99.90;;;;;;5000170;28;20085;-75
2024/01/03 06:20:52;;;;;;;9.75;3.30;;;9.10;99.90;;;;;;5000226;28;20485;-76
2024/01/03 06:23:18;;;;;;;17.80;3.58;;;9.10;99.90;;;;;;5016559;28;20037;-75
2024/01/03 06:25:43;;;;;;;22.92;3.90;;;9.10;99.90;;;;;;4999749;28;20039;-75
2024/01/03 06:28:09;;;;;;;11.27;2.75;;;9.10;99.90;;;;;;5016346;28;20034;-76
2024/01/03 06:30:35;;;;;;;17.85;2.65;;;9.10;99.90;;;;;;5016461;28;20037;-75
2024/01/03 06:33:01;;;;;;;14.32;2.90;;;9.10;99.90;;;;;;5016255;28;20472;-75
2024/01/03 06:35:26;;;;;;;18.58;4.43;;;9.10;99.90;;;;;;5016525;28;20436;-75
2024/01/03 06:37:52;;;;;;;11.48;2.22;;;9.20;99.90;;;;;;5016023;28;20044;-75
2024/01/03 06:40:18;;;;;;;12.02;3.15;;;9.20;99.90;;;;;;5016255;28;20042;-75
2024/01/03 06:42:43;;;;;;;15.15;2.88;;;9.10;99.90;;;;;;5016212;28;20041;-75
2024/01/03 06:45:09;;;;;;;12.93;2.88;;;9.20;99.90;;;;;;5000049;28;20040;-75
2024/01/03 06:47:35;;;;;;;14.52;2.03;;;9.10;99.90;;;;;;5015644;28;20073;-75
2024/01/03 06:50:00;;;;;;;16.40;2.35;;;9.20;99.90;;;;;;4999642;28;20069;-76
2024/01/03 06:52:26;;;;;;;22.90;4.95;;;9.20;99.90;;;;;;5033983;28;20072;-76
2024/01/03 06:54:51;;;;;;;20.20;5.03;;;9.30;99.90;;;;;;5015960;28;20045;-75
2024/01/03 06:57:17;;;;;;;11.55;2.78;;;9.30;99.90;;;;;;5015499;28;20038;-75
2024/01/03 06:59:42;;;;;;;15.60;2.90;;;9.30;99.90;;;;;;4999520;28;20119;-75
2024/01/03 07:02:08;;;;;;;15.43;3.33;;;9.20;99.90;;;;;;5015760;28;20041;-75
2024/01/03 07:04:34;;;;;;;16.98;2.33;;;9.20;99.90;;;;;;5015657;28;20092;-75
2024/01/03 07:06:59;;;;;;;12.18;2.92;;;9.20;99.90;;;;;;5015634;28;20041;-75
2024/01/03 07:09:25;;;;;;;21.70;3.67;;;9.20;99.90;;;;;;4999191;28;20083;-75
2024/01/03 07:11:52;;;;;;;14.95;3.28;;;9.20;99.90;;;;;;5015808;28;20045;-75
2024/01/03 07:14:18;;;;;;;19.73;4.15;;;9.20;99.90;;;;;;5015796;28;20041;-75
2024/01/03 07:16:44;;;;;;;14.52;3.83;;;9.10;99.90;;;;;;5015176;28;20030;-75
2024/01/03 07:19:10;;;;;;;11.60;3.17;;;9.20;99.90;;;;;;5015333;28;20186;-76
2024/01/03 07:21:36;;;;;;;11.80;3.22;;;9.10;99.90;;;;;;4999034;28;20539;-75
2024/01/03 07:24:01;;;;;;;10.35;2.17;;;9.10;99.90;;;;;;4999193;28;20038;-75
2024/01/03 07:26:27;;;;;;;29.75;3.13;;;9.20;99.90;;;;;;5015150;28;20048;-75
2024/01/03 07:28:52;;;;;;;19.27;2.97;;;9.20;99.90;;;;;;4998776;28;20412;-75
2024/01/03 07:31:18;;;;;;;9.00;2.20;;;9.20;99.90;;;;;;5015202;28;20073;-75
2024/01/03 07:33:43;;;;;;;10.90;2.30;;;9.10;99.90;;;;;;5015505;28;20060;-75
2024/01/03 07:36:09;;;;;;;8.57;1.77;;;9.20;99.90;;;;;;5013972;28;20429;-75
2024/01/03 07:38:35;;;;;;;9.07;2.38;;;9.10;99.90;;;;;;5014979;28;20137;-75
2024/01/03 07:41:01;;;;;;;12.95;2.53;;;9.20;99.90;;;;;;5015138;28;20037;-75
2024/01/03 07:43:27;;;;;;;13.38;2.75;;;9.20;99.90;;;;;;5015006;28;20037;-75
2024/01/03 07:45:53;;;;;;;10.40;2.13;;;9.20;99.90;;;;;;5014814;28;20041;-75
2024/01/03 07:48:18;;;;;;;5.72;1.75;;;9.20;99.90;;;;;;5014606;28;20382;-75
2024/01/03 07:50:44;;;;;;;14.45;2.97;;;9.20;99.90;;;;;;5014905;28;20041;-75
2024/01/03 07:53:10;;;;;;;17.88;3.33;;;9.20;99.90;;;;;;4998626;28;20037;-75
2024/01/03 07:55:35;;;;;;;11.15;3.20;;;9.30;99.90;;;;;;5014610;28;20041;-75
2024/01/03 07:58:01;;;;;;;14.23;2.30;;;9.30;99.90;;;;;;4997829;28;20034;-75
2024/01/03 08:00:30;;;;;;;16.05;2.42;;;9.30;99.90;;;;;;4997998;28;20100;-75
2024/01/03 08:02:56;;;;;;;10.98;2.13;;;9.20;99.90;;;;;;5014521;28;20084;-76
2024/01/03 08:05:22;;;;;;;15.38;3.42;;;9.30;99.90;;;;;;5014556;28;20037;-75
2024/01/03 08:07:48;;;;;;;16.30;3.80;;;9.30;99.90;;;;;;5014203;28;20103;-75
2024/01/03 08:10:14;;;;;;;16.95;3.22;;;9.30;99.90;;;;;;4998206;28;20048;-75
2024/01/03 08:12:41;;;;;;;9.07;2.15;;;9.30;99.90;;;;;;5014415;28;20038;-75
2024/01/03 08:15:07;;;;;;;20.25;3.30;;;9.20;99.90;;;;;;4997856;28;20493;-75
2024/01/03 08:17:32;;;;;;;14.30;3.40;;;9.30;99.90;;;;;;5014089;28;20037;-75
2024/01/03 08:19:58;;;;;;;10.25;1.92;;;9.20;99.90;;;;;;5014633;28;20037;-75
2024/01/03 08:22:24;;;;;;;16.58;2.30;;;9.20;99.90;;;;;;4998271;28;20132;-75
2024/01/03 08:24:49;;;;;;;20.90;3.90;;;9.20;99.90;;;;;;5014286;28;20045;-75
2024/01/03 08:27:17;;;;;;;10.50;2.25;;;9.30;99.90;;;;;;5014001;28;20519;-75
2024/01/03 08:29:43;;;;;;;7.03;2.15;;;9.20;99.90;;;;;;4997896;28;20045;-75
2024/01/03 08:32:09;;;;;;;11.05;2.28;;;9.10;99.90;;;;;;4997904;28;20052;-75
2024/01/03 08:34:35;;;;;;;9.57;3.08;;;9.20;99.90;;;;;;5014261;28;20409;-75
2024/01/03 08:37:00;;;;;;;11.40;1.65;;;9.30;99.90;;;;;;5014017;28;20043;-75
2024/01/03 08:39:26;;;;;;;6.78;1.63;;;9.30;99.90;;;;;;4997392;28;20042;-75
2024/01/03 08:41:53;;;;;;;9.73;1.90;;;9.10;99.90;;;;;;4997989;28;20128;-75
2024/01/03 08:44:22;;;;;;;8.85;2.42;;;9.10;99.90;;;;;;5013934;28;20037;-75
2024/01/03 08:46:48;;;;;;;12.75;2.10;;;9.10;99.90;;;;;;5013728;28;20037;-75
2024/01/03 08:49:14;;;;;;;11.05;2.35;;;9.20;99.90;;;;;;5013652;28;20120;-75
2024/01/03 08:51:44;;;;;;;11.95;2.67;;;9.10;99.90;;;;;;5013918;28;20037;-75
2024/01/03 08:54:10;;;;;;;11.57;2.13;;;9.20;99.90;;;;;;4997841;28;20041;-75
2024/01/03 08:56:38;;;;;;;10.10;2.05;;;9.20;99.90;;;;;;4997428;28;20033;-75
2024/01/03 08:59:05;;;;;;;9.50;2.00;;;9.20;99.90;;;;;;5064524;22;20064;-79
2024/01/03 09:01:34;;;;;;;10.40;2.58;;;9.20;99.90;;;;;;5042203;28;20071;-79
2024/01/03 09:04:00;;;;;;;7.80;1.95;;;9.10;99.90;;;;;;5038397;28;20040;-80
2024/01/03 09:06:26;;;;;;;9.80;2.67;;;9.10;99.90;;;;;;5040625;28;20041;-80
2024/01/03 09:08:51;;;;;;;10.82;2.15;;;9.10;99.90;;;;;;5056756;28;20048;-79
2024/01/03 09:11:18;;;;;;;12.98;2.55;;;9.10;99.90;;;;;;5061722;28;20041;-80
2024/01/03 09:13:49;;;;;;;13.15;2.53;;;9.10;99.90;;;;;;5059008;28;20036;-79
2024/01/03 09:16:17;;;;;;;14.90;3.88;;;9.10;99.90;;;;;;5061844;28;20051;-80
2024/01/03 09:18:43;;;;;;;17.98;3.72;;;9.10;99.90;;;;;;5059816;28;20445;-79
2024/01/03 09:21:09;;;;;;;11.40;3.22;;;9.20;99.90;;;;;;5060894;28;20044;-79
2024/01/03 09:23:34;;;;;;;9.70;2.05;;;9.00;99.90;;;;;;5062811;28;20036;-80
2024/01/03 09:26:04;;;;;;;13.77;2.28;;;9.10;99.90;;;;;;5081915;28;20028;-79
2024/01/03 09:28:29;;;;;;;9.05;2.20;;;9.10;99.90;;;;;;5080892;28;20049;-80
2024/01/03 09:30:55;;;;;;;16.52;2.22;;;9.20;99.90;;;;;;5065867;28;20058;-80
2024/01/03 09:33:20;;;;;;;13.63;2.10;;;9.10;99.90;;;;;;5045776;28;20036;-80
2024/01/03 09:35:46;;;;;;;12.38;3.10;;;9.10;99.90;;;;;;5080586;28;20066;-78
2024/01/03 09:38:13;;;;;;;10.38;2.00;;;9.20;99.90;;;;;;5054508;28;20052;-79
2024/01/03 09:40:40;;;;;;;14.25;2.55;;;9.30;99.90;;;;;;5059142;28;20049;-80
2024/01/03 09:43:06;;;;;;;11.50;2.55;;;9.30;99.90;;;;;;5059877;28;20059;-79
2024/01/03 09:45:32;;;;;;;12.85;4.05;;;9.20;99.90;;;;;;5063035;28;20036;-79
2024/01/03 09:47:58;;;;;;;17.45;3.03;;;9.30;99.90;;;;;;5058678;28;20039;-79
2024/01/03 09:50:24;;;;;;;10.50;3.38;;;9.20;99.90;;;;;;5057830;28;20048;-79
2024/01/03 09:52:49;;;;;;;11.00;2.55;;;9.20;99.90;;;;;;5059535;28;20045;-79
2024/01/03 09:55:18;;;;;;;7.22;2.15;;;9.30;99.90;;;;;;5075764;28;20119;-80
2024/01/03 09:57:45;;;;;;;13.18;2.40;;;9.40;99.90;;;;;;5076708;28;20445;-80
2024/01/03 10:00:11;;;;;;;12.20;2.70;;;9.40;99.90;;;;;;5061746;28;20037;-79
2024/01/03 10:02:37;;;;;;;8.73;2.00;;;9.30;99.90;;;;;;5063783;28;20145;-80
2024/01/03 10:05:04;;;;;;;8.57;2.40;;;9.30;99.90;;;;;;5067749;28;20032;-79
2024/01/03 10:07:36;;;;;;;10.93;2.65;;;9.40;99.90;;;;;;5068597;28;20044;-79
2024/01/03 10:10:02;;;;;;;15.75;2.17;;;9.40;99.90;;;;;;5068842;28;20045;-79
2024/01/03 10:12:34;;;;;;;9.68;1.83;;;9.40;99.90;;;;;;5071005;28;20384;-79
2024/01/03 10:15:16;;;;;;;13.50;2.17;;;9.40;99.90;;;;;;5068251;28;20045;-79
2024/01/03 10:17:46;;;;;;;7.85;2.83;;;9.40;99.90;;;;;;5064292;28;20068;-80
2024/01/03 10:20:29;;;;;;;10.38;1.63;;;9.40;99.90;;;;;;5067006;28;20032;-80
2024/01/03 10:23:04;;;;;;;10.30;2.50;;;9.50;99.90;;;;;;5066189;28;20049;-79
2024/01/03 10:25:30;;;;;;;8.45;1.75;;;9.60;99.90;;;;;;5062531;28;20040;-79
2024/01/03 10:28:04;;;;;;;11.65;2.83;;;9.50;99.90;;;;;;5065408;28;20036;-79
2024/01/03 10:30:30;;;;;;;8.52;2.10;;;9.60;99.90;;;;;;5062972;28;20048;-79
2024/01/03 10:33:03;;;;;;;8.13;2.08;;;9.60;99.90;;;;;;5049697;28;20159;-80
2024/01/03 10:35:29;;;;;;;10.63;2.25;;;9.80;99.90;;;;;;5065540;28;20080;-79
2024/01/03 10:38:02;;;;;;;12.02;1.90;;;9.80;99.90;;;;;;5064678;28;20033;-79
2024/01/03 10:40:30;;;;;;;9.25;1.83;;;9.80;99.90;;;;;;5067226;28;20036;-79
2024/01/03 10:42:56;;;;;;;6.75;1.75;;;10.00;99.90;;;;;;5066195;28;20097;-79
2024/01/03 10:45:23;;;;;;;9.25;1.25;;;10.00;99.90;;;;;;5062871;28;20033;-79
2024/01/03 10:47:49;;;;;;;9.38;2.50;;;10.10;99.90;;;;;;5078563;28;20040;-79
2024/01/03 10:50:14;;;;;;;5.68;1.50;;;10.10;99.90;;;;;;5057793;28;20042;-79
2024/01/03 10:52:44;;;;;;;10.02;2.03;;;10.20;99.90;;;;;;5060013;28;20536;-79
2024/01/03 10:55:22;;;;;;;9.77;1.63;;;10.20;99.90;;;;;;5060732;28;20377;-79
2024/01/03 10:58:00;;;;;;;11.00;2.08;;;10.20;99.90;;;;;;5062262;28;20040;-79
2024/01/03 11:00:47;;;;;;;6.68;1.67;;;10.10;99.90;;;;;;5083139;28;20105;-79
2024/01/03 11:03:23;;;;;;;5.70;1.13;;;10.00;99.90;;;;;;5042800;28;20722;-78
2024/01/03 11:06:05;;;;;;;6.88;1.63;;;9.90;99.90;;;;;;5056979;28;20037;-78
2024/01/03 11:08:47;;;;;;;6.68;1.45;;;9.90;99.90;;;;;;5057957;28;20496;-79
2024/01/03 11:11:27;;;;;;;8.05;2.22;;;9.90;99.90;;;;;;5060946;28;20064;-80
2024/01/03 11:13:52;;;;;;;5.10;0.98;;;9.90;99.90;;;;;;5059728;28;20039;-80
2024/01/03 11:16:39;;;;;;;7.07;2.10;;;10.10;99.90;;;;;;5039912;28;20045;-81
2024/01/03 11:19:07;;;;;;;7.43;1.52;;;10.00;99.90;;;;;;5059542;28;20280;-80
2024/01/03 11:21:36;;;;;;;6.13;2.22;;;10.00;99.90;;;;;;5060379;28;20052;-80
2024/01/03 11:24:03;;;;;;;8.82;1.50;;;10.00;99.90;;;;;;5041275;28;20435;-79
2024/01/03 11:26:53;;;;;;;12.00;2.63;;;10.00;99.90;;;;;;5057995;28;20036;-80
2024/01/03 11:29:48;;;;;;;9.95;1.92;;;10.00;99.90;;;;;;5058705;28;20101;-80
2024/01/03 11:32:31;;;;;;;12.00;2.15;;;9.90;99.90;;;;;;5056694;28;20078;-78
2024/01/03 11:34:57;;;;;;;15.20;2.35;;;10.00;99.90;;;;;;5056483;28;20048;-79
2024/01/03 11:37:24;;;;;;;10.88;2.38;;;10.00;99.90;;;;;;5057046;28;20044;-80
2024/01/03 11:39:52;;;;;;;12.02;2.20;;;10.00;99.90;;;;;;5057407;28;20400;-79
2024/01/03 11:42:31;;;;;;;12.68;1.85;;;10.00;99.90;;;;;;5058311;28;20032;-79
2024/01/03 11:45:07;;;;;;;13.20;2.33;;;9.90;99.90;;;;;;5058737;28;20032;-79
2024/01/03 11:47:34;;;;;;;9.93;2.67;;;9.90;99.90;;;;;;5057091;28;20041;-79
2024/01/03 11:50:18;;;;;;;8.95;2.75;;;9.70;99.90;;;;;;5075730;28;20043;-80
2024/01/03 11:52:47;;;;;;;5.80;1.92;;;9.80;99.90;;;;;;5057896;28;20040;-79
2024/01/03 11:55:16;;;;;;;13.10;2.80;;;9.80;99.90;;;;;;5043010;28;20086;-79
2024/01/03 11:57:46;;;;;;;13.88;3.33;;;9.90;99.90;;;;;;5058403;28;20269;-79
2024/01/03 12:00:14;;;;;;;11.20;3.00;;;10.00;99.90;;;;;;5058609;28;20044;-79
2024/01/03 12:03:01;;;;;;;16.23;2.55;;;10.00;99.90;;;;;;5039492;28;20040;-78
2024/01/03 12:05:27;;;;;;;18.02;3.25;;;10.10;99.90;;;;;;5057581;28;20029;-79
2024/01/03 12:07:55;;;;;;;13.02;2.72;;;10.20;99.90;;;;;;5041475;28;20436;-78
2024/01/03 12:10:22;;;;;;;14.73;3.63;;;10.20;99.90;;;;;;5056287;28;20055;-78
2024/01/03 12:12:51;;;;;;;14.30;3.17;;;10.20;99.90;;;;;;5054348;28;20442;-78
2024/01/03 12:15:35;;;;;;;14.82;2.63;;;10.30;99.90;;;;;;5073500;28;20040;-78
2024/01/03 12:18:08;;;;;;;14.77;2.70;;;10.20;99.90;;;;;;5058797;28;20045;-79
2024/01/03 12:20:33;;;;;;;15.45;3.65;;;10.20;99.90;;;;;;5057216;28;20033;-79
2024/01/03 12:23:06;;;;;;;11.60;2.83;;;10.20;99.90;;;;;;5056045;28;20036;-80
2024/01/03 12:25:32;;;;;;;18.42;2.88;;;10.40;99.90;;;;;;5056174;28;20149;-79
2024/01/03 12:27:58;;;;;;;10.70;2.40;;;10.40;99.90;;;;;;5046564;28;20265;-79
2024/01/03 12:30:24;;;;;;;15.90;2.15;;;10.40;99.90;;;;;;5057853;28;20044;-78
2024/01/03 12:32:50;;;;;;;12.95;2.97;;;10.40;99.90;;;;;;5052919;28;20052;-77
2024/01/03 12:35:16;;;;;;;11.43;3.30;;;10.40;99.90;;;;;;5052878;28;20504;-77
2024/01/03 12:37:46;;;;;;;11.02;2.67;;;10.40;99.90;;;;;;5035827;28;20036;-78
2024/01/03 12:40:16;;;;;;;15.02;2.83;;;10.40;99.90;;;;;;5053536;28;20040;-78
2024/01/03 12:42:43;;;;;;;12.90;2.83;;;10.40;99.90;;;;;;5047569;28;20032;-78
2024/01/03 12:45:09;;;;;;;11.82;4.22;;;10.40;99.90;;;;;;5049498;28;20032;-78
2024/01/03 12:47:36;;;;;;;10.30;2.30;;;10.40;99.90;;;;;;5052976;28;20045;-78
2024/01/03 12:50:01;;;;;;;12.93;2.50;;;10.30;99.90;;;;;;5053582;28;20041;-78
2024/01/03 12:52:29;;;;;;;12.43;3.45;;;10.40;99.90;;;;;;5036400;28;20047;-78